sensor_id;sensor_type;location;lat;lon;timestamp;P1;durP1;ratioP1;P2;durP2;ratioP2
5303;SDS011;2674;49.722;10.892;2023-04-07T00:00:29;17.93;;;11.07;;
5303;SDS011;2674;49.722;10.892;2023-04-07T00:02:55;16.10;;;11.43;;
5303;SDS011;2674;49.722;10.892;2023-04-07T00:05:21;18.83;;;11.10;;
5303;SDS011;2674;49.722;10.892;2023-04-07T00:07:48;19.27;;;11.00;;
5303;SDS011;2674;49.722;10.892;2023-04-07T00:10:14;17.33;;;11.20;;
5303;SDS011;2674;49.722;10.892;2023-04-07T00:12:40;17.03;;;11.73;;
5303;SDS011;2674;49.722;10.892;2023-04-07T00:15:06;17.00;;;11.33;;
5303;SDS011;2674;49.722;10.892;2023-04-07T00:17:32;17.07;;;10.70;;
5303;SDS011;2674;49.722;10.892;2023-04-07T00:19:58;20.63;;;11.17;;
5303;SDS011;2674;49.722;10.892;2023-04-07T00:22:24;18.33;;;10.53;;
5303;SDS011;2674;49.722;10.892;2023-04-07T00:24:50;15.90;;;11.27;;
5303;SDS011;2674;49.722;10.892;2023-04-07T00:27:15;16.17;;;11.30;;
5303;SDS011;2674;49.722;10.892;2023-04-07T00:29:41;14.00;;;10.07;;
5303;SDS011;2674;49.722;10.892;2023-04-07T00:32:11;18.93;;;11.60;;
5303;SDS011;2674;49.722;10.892;2023-04-07T00:34:36;17.53;;;10.97;;
5303;SDS011;2674;49.722;10.892;2023-04-07T00:37:02;19.10;;;12.00;;
5303;SDS011;2674;49.722;10.892;2023-04-07T00:39:31;14.87;;;11.23;;
5303;SDS011;2674;49.722;10.892;2023-04-07T00:41:57;18.60;;;11.83;;
5303;SDS011;2674;49.722;10.892;2023-04-07T00:44:23;19.53;;;10.77;;
5303;SDS011;2674;49.722;10.892;2023-04-07T00:46:48;19.23;;;11.80;;
5303;SDS011;2674;49.722;10.892;2023-04-07T00:49:15;15.90;;;10.87;;
5303;SDS011;2674;49.722;10.892;2023-04-07T00:51:44;18.60;;;11.30;;
5303;SDS011;2674;49.722;10.892;2023-04-07T00:54:10;14.07;;;10.50;;
5303;SDS011;2674;49.722;10.892;2023-04-07T00:56:36;19.73;;;11.60;;
5303;SDS011;2674;49.722;10.892;2023-04-07T00:59:05;21.40;;;11.30;;
5303;SDS011;2674;49.722;10.892;2023-04-07T01:01:33;21.53;;;11.63;;
5303;SDS011;2674;49.722;10.892;2023-04-07T01:04:17;21.77;;;12.67;;
5303;SDS011;2674;49.722;10.892;2023-04-07T01:06:55;16.10;;;10.97;;
5303;SDS011;2674;49.722;10.892;2023-04-07T01:09:34;19.93;;;11.60;;
5303;SDS011;2674;49.722;10.892;2023-04-07T01:12:11;25.90;;;13.80;;
5303;SDS011;2674;49.722;10.892;2023-04-07T01:14:41;23.03;;;12.27;;
5303;SDS011;2674;49.722;10.892;2023-04-07T01:17:15;18.53;;;11.80;;
5303;SDS011;2674;49.722;10.892;2023-04-07T01:19:46;18.33;;;11.63;;
5303;SDS011;2674;49.722;10.892;2023-04-07T01:22:20;17.77;;;10.53;;
5303;SDS011;2674;49.722;10.892;2023-04-07T01:30:18;19.60;;;10.80;;
5303;SDS011;2674;49.722;10.892;2023-04-07T01:32:49;17.87;;;11.23;;
5303;SDS011;2674;49.722;10.892;2023-04-07T01:35:17;20.30;;;11.60;;
5303;SDS011;2674;49.722;10.892;2023-04-07T01:37:44;15.77;;;10.20;;
5303;SDS011;2674;49.722;10.892;2023-04-07T01:40:13;14.73;;;10.43;;
5303;SDS011;2674;49.722;10.892;2023-04-07T01:42:40;14.70;;;9.83;;
5303;SDS011;2674;49.722;10.892;2023-04-07T01:45:07;20.03;;;10.50;;
5303;SDS011;2674;49.722;10.892;2023-04-07T01:47:34;17.40;;;10.80;;
5303;SDS011;2674;49.722;10.892;2023-04-07T01:50:01;15.27;;;9.10;;
5303;SDS011;2674;49.722;10.892;2023-04-07T01:52:31;15.83;;;9.40;;
5303;SDS011;2674;49.722;10.892;2023-04-07T01:54:59;15.07;;;9.70;;
5303;SDS011;2674;49.722;10.892;2023-04-07T01:57:25;11.97;;;9.30;;
5303;SDS011;2674;49.722;10.892;2023-04-07T01:59:51;19.60;;;10.40;;
5303;SDS011;2674;49.722;10.892;2023-04-07T02:02:17;15.93;;;9.90;;
5303;SDS011;2674;49.722;10.892;2023-04-07T02:07:19;13.80;;;9.43;;
5303;SDS011;2674;49.722;10.892;2023-04-07T02:10:05;16.07;;;10.37;;
5303;SDS011;2674;49.722;10.892;2023-04-07T02:12:36;12.33;;;9.97;;
5303;SDS011;2674;49.722;10.892;2023-04-07T02:15:04;14.90;;;9.73;;
5303;SDS011;2674;49.722;10.892;2023-04-07T02:17:33;15.40;;;8.97;;
5303;SDS011;2674;49.722;10.892;2023-04-07T02:20:02;22.53;;;10.20;;
5303;SDS011;2674;49.722;10.892;2023-04-07T02:22:29;13.10;;;9.23;;
5303;SDS011;2674;49.722;10.892;2023-04-07T02:24:57;14.13;;;10.40;;
5303;SDS011;2674;49.722;10.892;2023-04-07T02:27:23;21.17;;;11.27;;
5303;SDS011;2674;49.722;10.892;2023-04-07T02:29:48;21.90;;;10.17;;
5303;SDS011;2674;49.722;10.892;2023-04-07T02:32:14;12.90;;;8.80;;
5303;SDS011;2674;49.722;10.892;2023-04-07T02:34:41;12.43;;;9.90;;
5303;SDS011;2674;49.722;10.892;2023-04-07T02:37:07;12.90;;;9.17;;
5303;SDS011;2674;49.722;10.892;2023-04-07T02:39:33;15.33;;;9.23;;
5303;SDS011;2674;49.722;10.892;2023-04-07T02:41:59;17.87;;;10.03;;
5303;SDS011;2674;49.722;10.892;2023-04-07T02:44:25;14.63;;;8.83;;
5303;SDS011;2674;49.722;10.892;2023-04-07T02:46:51;13.10;;;9.20;;
5303;SDS011;2674;49.722;10.892;2023-04-07T02:49:16;13.43;;;9.33;;
5303;SDS011;2674;49.722;10.892;2023-04-07T02:51:42;14.47;;;8.87;;
5303;SDS011;2674;49.722;10.892;2023-04-07T02:54:08;18.60;;;9.30;;
5303;SDS011;2674;49.722;10.892;2023-04-07T02:56:34;14.93;;;9.77;;
5303;SDS011;2674;49.722;10.892;2023-04-07T02:59:00;13.83;;;9.90;;
5303;SDS011;2674;49.722;10.892;2023-04-07T03:01:25;12.77;;;8.40;;
5303;SDS011;2674;49.722;10.892;2023-04-07T03:03:51;14.83;;;9.30;;
5303;SDS011;2674;49.722;10.892;2023-04-07T03:06:17;16.33;;;9.30;;
5303;SDS011;2674;49.722;10.892;2023-04-07T03:08:43;14.90;;;10.30;;
5303;SDS011;2674;49.722;10.892;2023-04-07T03:11:10;15.33;;;9.20;;
5303;SDS011;2674;49.722;10.892;2023-04-07T03:13:36;17.97;;;9.60;;
5303;SDS011;2674;49.722;10.892;2023-04-07T03:16:02;14.90;;;9.40;;
5303;SDS011;2674;49.722;10.892;2023-04-07T03:18:27;15.00;;;9.47;;
5303;SDS011;2674;49.722;10.892;2023-04-07T03:20:53;23.37;;;12.33;;
5303;SDS011;2674;49.722;10.892;2023-04-07T03:23:20;21.27;;;11.20;;
5303;SDS011;2674;49.722;10.892;2023-04-07T03:25:48;17.90;;;9.60;;
5303;SDS011;2674;49.722;10.892;2023-04-07T03:28:14;15.30;;;10.50;;
5303;SDS011;2674;49.722;10.892;2023-04-07T03:30:39;15.57;;;9.40;;
5303;SDS011;2674;49.722;10.892;2023-04-07T03:33:05;19.53;;;11.17;;
5303;SDS011;2674;49.722;10.892;2023-04-07T03:35:31;17.70;;;10.17;;
5303;SDS011;2674;49.722;10.892;2023-04-07T03:37:57;16.00;;;9.57;;
5303;SDS011;2674;49.722;10.892;2023-04-07T03:40:22;14.83;;;9.43;;
5303;SDS011;2674;49.722;10.892;2023-04-07T03:42:49;14.03;;;9.70;;
5303;SDS011;2674;49.722;10.892;2023-04-07T03:45:15;13.10;;;9.63;;
5303;SDS011;2674;49.722;10.892;2023-04-07T03:47:41;14.00;;;9.17;;
5303;SDS011;2674;49.722;10.892;2023-04-07T03:50:07;13.50;;;9.07;;
5303;SDS011;2674;49.722;10.892;2023-04-07T03:52:33;13.40;;;10.00;;
5303;SDS011;2674;49.722;10.892;2023-04-07T03:54:59;15.37;;;11.00;;
5303;SDS011;2674;49.722;10.892;2023-04-07T03:57:25;17.37;;;11.20;;
5303;SDS011;2674;49.722;10.892;2023-04-07T03:59:51;12.83;;;9.07;;
5303;SDS011;2674;49.722;10.892;2023-04-07T04:02:17;17.83;;;10.40;;
5303;SDS011;2674;49.722;10.892;2023-04-07T04:04:43;15.40;;;9.50;;
5303;SDS011;2674;49.722;10.892;2023-04-07T04:07:09;10.50;;;8.17;;
5303;SDS011;2674;49.722;10.892;2023-04-07T04:09:35;15.57;;;9.47;;
5303;SDS011;2674;49.722;10.892;2023-04-07T04:12:01;13.40;;;8.90;;
5303;SDS011;2674;49.722;10.892;2023-04-07T04:14:26;24.47;;;9.93;;
5303;SDS011;2674;49.722;10.892;2023-04-07T04:16:53;14.03;;;9.40;;
5303;SDS011;2674;49.722;10.892;2023-04-07T04:19:19;13.27;;;8.20;;
5303;SDS011;2674;49.722;10.892;2023-04-07T04:21:44;14.73;;;9.80;;
5303;SDS011;2674;49.722;10.892;2023-04-07T04:24:10;15.37;;;9.30;;
5303;SDS011;2674;49.722;10.892;2023-04-07T04:26:36;18.37;;;9.40;;
5303;SDS011;2674;49.722;10.892;2023-04-07T04:29:02;13.50;;;9.77;;
5303;SDS011;2674;49.722;10.892;2023-04-07T04:31:28;20.20;;;8.80;;
5303;SDS011;2674;49.722;10.892;2023-04-07T04:33:54;14.53;;;9.37;;
5303;SDS011;2674;49.722;10.892;2023-04-07T04:36:20;14.43;;;8.77;;
5303;SDS011;2674;49.722;10.892;2023-04-07T04:38:46;12.43;;;7.83;;
5303;SDS011;2674;49.722;10.892;2023-04-07T04:41:11;13.63;;;8.47;;
5303;SDS011;2674;49.722;10.892;2023-04-07T04:43:37;11.53;;;8.33;;
5303;SDS011;2674;49.722;10.892;2023-04-07T04:46:03;10.37;;;7.33;;
5303;SDS011;2674;49.722;10.892;2023-04-07T04:48:29;10.83;;;7.70;;
5303;SDS011;2674;49.722;10.892;2023-04-07T04:50:55;11.73;;;8.00;;
5303;SDS011;2674;49.722;10.892;2023-04-07T04:53:20;11.67;;;7.87;;
5303;SDS011;2674;49.722;10.892;2023-04-07T04:55:46;11.07;;;7.07;;
5303;SDS011;2674;49.722;10.892;2023-04-07T04:58:16;11.70;;;7.67;;
5303;SDS011;2674;49.722;10.892;2023-04-07T05:00:45;14.07;;;8.83;;
5303;SDS011;2674;49.722;10.892;2023-04-07T05:03:10;13.70;;;8.00;;
5303;SDS011;2674;49.722;10.892;2023-04-07T05:05:36;8.83;;;7.10;;
5303;SDS011;2674;49.722;10.892;2023-04-07T05:08:02;7.80;;;6.00;;
5303;SDS011;2674;49.722;10.892;2023-04-07T05:10:28;12.73;;;6.80;;
5303;SDS011;2674;49.722;10.892;2023-04-07T05:12:54;11.57;;;7.87;;
5303;SDS011;2674;49.722;10.892;2023-04-07T05:15:23;10.47;;;7.00;;
5303;SDS011;2674;49.722;10.892;2023-04-07T05:17:49;11.00;;;7.30;;
5303;SDS011;2674;49.722;10.892;2023-04-07T05:20:15;15.93;;;7.77;;
5303;SDS011;2674;49.722;10.892;2023-04-07T05:22:41;13.30;;;8.30;;
5303;SDS011;2674;49.722;10.892;2023-04-07T05:25:07;14.93;;;9.77;;
5303;SDS011;2674;49.722;10.892;2023-04-07T05:27:33;18.93;;;9.97;;
5303;SDS011;2674;49.722;10.892;2023-04-07T05:29:59;13.70;;;9.13;;
5303;SDS011;2674;49.722;10.892;2023-04-07T05:32:26;16.20;;;8.67;;
5303;SDS011;2674;49.722;10.892;2023-04-07T05:34:52;11.87;;;8.87;;
5303;SDS011;2674;49.722;10.892;2023-04-07T05:37:18;12.43;;;8.40;;
5303;SDS011;2674;49.722;10.892;2023-04-07T05:39:44;11.53;;;8.00;;
5303;SDS011;2674;49.722;10.892;2023-04-07T05:42:09;16.60;;;9.80;;
5303;SDS011;2674;49.722;10.892;2023-04-07T05:44:35;12.03;;;7.60;;
5303;SDS011;2674;49.722;10.892;2023-04-07T05:47:01;15.57;;;8.47;;
5303;SDS011;2674;49.722;10.892;2023-04-07T05:49:29;9.67;;;8.43;;
5303;SDS011;2674;49.722;10.892;2023-04-07T05:51:55;9.97;;;7.30;;
5303;SDS011;2674;49.722;10.892;2023-04-07T05:54:21;12.60;;;9.43;;
5303;SDS011;2674;49.722;10.892;2023-04-07T05:56:47;14.40;;;8.40;;
5303;SDS011;2674;49.722;10.892;2023-04-07T05:59:13;12.13;;;8.30;;
5303;SDS011;2674;49.722;10.892;2023-04-07T06:01:39;15.77;;;9.27;;
5303;SDS011;2674;49.722;10.892;2023-04-07T06:04:06;11.83;;;8.60;;
5303;SDS011;2674;49.722;10.892;2023-04-07T06:06:32;11.07;;;9.17;;
5303;SDS011;2674;49.722;10.892;2023-04-07T06:09:04;11.77;;;8.20;;
5303;SDS011;2674;49.722;10.892;2023-04-07T06:11:30;14.67;;;8.40;;
5303;SDS011;2674;49.722;10.892;2023-04-07T06:13:55;12.90;;;6.67;;
5303;SDS011;2674;49.722;10.892;2023-04-07T06:16:21;10.70;;;7.30;;
5303;SDS011;2674;49.722;10.892;2023-04-07T06:18:47;10.23;;;6.60;;
5303;SDS011;2674;49.722;10.892;2023-04-07T06:21:14;15.60;;;8.70;;
5303;SDS011;2674;49.722;10.892;2023-04-07T06:23:40;13.77;;;8.50;;
5303;SDS011;2674;49.722;10.892;2023-04-07T06:26:09;12.60;;;7.37;;
5303;SDS011;2674;49.722;10.892;2023-04-07T06:28:36;9.40;;;7.93;;
5303;SDS011;2674;49.722;10.892;2023-04-07T06:31:02;11.17;;;7.67;;
5303;SDS011;2674;49.722;10.892;2023-04-07T06:33:28;13.10;;;7.77;;
5303;SDS011;2674;49.722;10.892;2023-04-07T06:35:53;11.33;;;7.60;;
5303;SDS011;2674;49.722;10.892;2023-04-07T06:38:20;10.20;;;6.33;;
5303;SDS011;2674;49.722;10.892;2023-04-07T06:40:46;13.53;;;7.53;;
5303;SDS011;2674;49.722;10.892;2023-04-07T06:43:12;9.20;;;7.57;;
5303;SDS011;2674;49.722;10.892;2023-04-07T06:45:38;10.17;;;6.70;;
5303;SDS011;2674;49.722;10.892;2023-04-07T06:48:04;8.77;;;6.50;;
5303;SDS011;2674;49.722;10.892;2023-04-07T06:50:30;12.47;;;6.47;;
5303;SDS011;2674;49.722;10.892;2023-04-07T06:52:56;13.87;;;7.50;;
5303;SDS011;2674;49.722;10.892;2023-04-07T06:55:22;11.80;;;7.47;;
5303;SDS011;2674;49.722;10.892;2023-04-07T06:57:47;10.43;;;6.40;;
5303;SDS011;2674;49.722;10.892;2023-04-07T07:00:16;8.43;;;6.50;;
5303;SDS011;2674;49.722;10.892;2023-04-07T07:02:43;9.33;;;6.43;;
5303;SDS011;2674;49.722;10.892;2023-04-07T07:05:08;13.47;;;6.60;;
5303;SDS011;2674;49.722;10.892;2023-04-07T07:07:35;14.20;;;7.00;;
5303;SDS011;2674;49.722;10.892;2023-04-07T07:10:01;8.80;;;6.37;;
5303;SDS011;2674;49.722;10.892;2023-04-07T07:12:28;11.20;;;7.10;;
5303;SDS011;2674;49.722;10.892;2023-04-07T07:14:53;9.07;;;6.43;;
5303;SDS011;2674;49.722;10.892;2023-04-07T07:17:19;20.33;;;7.13;;
5303;SDS011;2674;49.722;10.892;2023-04-07T07:19:45;14.20;;;7.27;;
5303;SDS011;2674;49.722;10.892;2023-04-07T07:22:11;11.77;;;7.70;;
5303;SDS011;2674;49.722;10.892;2023-04-07T07:24:37;9.87;;;7.20;;
5303;SDS011;2674;49.722;10.892;2023-04-07T07:27:03;10.53;;;7.00;;
5303;SDS011;2674;49.722;10.892;2023-04-07T07:29:28;7.67;;;6.67;;
5303;SDS011;2674;49.722;10.892;2023-04-07T07:31:54;14.03;;;6.40;;
5303;SDS011;2674;49.722;10.892;2023-04-07T07:34:20;16.63;;;7.70;;
5303;SDS011;2674;49.722;10.892;2023-04-07T07:36:46;17.37;;;7.43;;
5303;SDS011;2674;49.722;10.892;2023-04-07T07:39:12;11.50;;;7.10;;
5303;SDS011;2674;49.722;10.892;2023-04-07T07:41:38;10.80;;;6.70;;
5303;SDS011;2674;49.722;10.892;2023-04-07T07:44:04;11.07;;;7.43;;
5303;SDS011;2674;49.722;10.892;2023-04-07T07:46:30;11.60;;;8.00;;
5303;SDS011;2674;49.722;10.892;2023-04-07T07:48:56;10.73;;;6.97;;
5303;SDS011;2674;49.722;10.892;2023-04-07T07:51:21;9.50;;;8.07;;
5303;SDS011;2674;49.722;10.892;2023-04-07T07:53:47;11.60;;;7.70;;
5303;SDS011;2674;49.722;10.892;2023-04-07T07:56:13;11.60;;;8.73;;
5303;SDS011;2674;49.722;10.892;2023-04-07T07:58:39;12.83;;;7.97;;
5303;SDS011;2674;49.722;10.892;2023-04-07T08:01:05;10.10;;;6.93;;
5303;SDS011;2674;49.722;10.892;2023-04-07T08:03:31;10.77;;;7.30;;
5303;SDS011;2674;49.722;10.892;2023-04-07T08:05:57;14.50;;;8.13;;
5303;SDS011;2674;49.722;10.892;2023-04-07T08:08:23;12.10;;;8.43;;
5303;SDS011;2674;49.722;10.892;2023-04-07T08:10:48;15.37;;;8.27;;
5303;SDS011;2674;49.722;10.892;2023-04-07T08:13:14;12.37;;;8.67;;
5303;SDS011;2674;49.722;10.892;2023-04-07T08:15:40;11.60;;;8.10;;
5303;SDS011;2674;49.722;10.892;2023-04-07T08:18:06;12.13;;;8.07;;
5303;SDS011;2674;49.722;10.892;2023-04-07T08:20:32;13.73;;;8.20;;
5303;SDS011;2674;49.722;10.892;2023-04-07T08:22:58;11.87;;;8.50;;
5303;SDS011;2674;49.722;10.892;2023-04-07T08:25:26;13.93;;;7.43;;
5303;SDS011;2674;49.722;10.892;2023-04-07T08:27:52;9.63;;;6.53;;
5303;SDS011;2674;49.722;10.892;2023-04-07T08:30:18;10.40;;;8.50;;
5303;SDS011;2674;49.722;10.892;2023-04-07T08:32:46;11.77;;;7.97;;
5303;SDS011;2674;49.722;10.892;2023-04-07T08:35:12;10.90;;;8.10;;
5303;SDS011;2674;49.722;10.892;2023-04-07T08:37:38;11.67;;;7.90;;
5303;SDS011;2674;49.722;10.892;2023-04-07T08:40:05;10.97;;;7.20;;
5303;SDS011;2674;49.722;10.892;2023-04-07T08:42:32;10.47;;;7.63;;
5303;SDS011;2674;49.722;10.892;2023-04-07T08:45:03;13.93;;;8.17;;
5303;SDS011;2674;49.722;10.892;2023-04-07T08:47:31;12.07;;;8.00;;
5303;SDS011;2674;49.722;10.892;2023-04-07T08:50:02;10.83;;;8.00;;
5303;SDS011;2674;49.722;10.892;2023-04-07T08:52:39;13.13;;;8.90;;
5303;SDS011;2674;49.722;10.892;2023-04-07T08:55:06;13.47;;;8.47;;
5303;SDS011;2674;49.722;10.892;2023-04-07T08:57:33;12.90;;;8.57;;
5303;SDS011;2674;49.722;10.892;2023-04-07T09:00:00;17.53;;;10.47;;
5303;SDS011;2674;49.722;10.892;2023-04-07T09:02:42;12.17;;;9.03;;
5303;SDS011;2674;49.722;10.892;2023-04-07T09:05:13;11.10;;;8.43;;
5303;SDS011;2674;49.722;10.892;2023-04-07T09:07:39;13.33;;;8.47;;
5303;SDS011;2674;49.722;10.892;2023-04-07T09:10:07;10.57;;;7.73;;
5303;SDS011;2674;49.722;10.892;2023-04-07T09:12:34;12.40;;;8.60;;
5303;SDS011;2674;49.722;10.892;2023-04-07T09:15:05;14.50;;;8.83;;
5303;SDS011;2674;49.722;10.892;2023-04-07T09:17:32;12.93;;;9.13;;
5303;SDS011;2674;49.722;10.892;2023-04-07T09:19:58;11.63;;;9.03;;
5303;SDS011;2674;49.722;10.892;2023-04-07T09:22:41;11.63;;;7.90;;
5303;SDS011;2674;49.722;10.892;2023-04-07T09:25:17;11.10;;;8.17;;
5303;SDS011;2674;49.722;10.892;2023-04-07T09:28:20;12.40;;;8.80;;
5303;SDS011;2674;49.722;10.892;2023-04-07T09:30:39;11.73;;;7.70;;
5303;SDS011;2674;49.722;10.892;2023-04-07T09:33:17;12.00;;;8.80;;
5303;SDS011;2674;49.722;10.892;2023-04-07T09:35:52;11.97;;;8.13;;
5303;SDS011;2674;49.722;10.892;2023-04-07T09:38:18;12.18;;;8.27;;
5303;SDS011;2674;49.722;10.892;2023-04-07T09:40:44;10.80;;;8.10;;
5303;SDS011;2674;49.722;10.892;2023-04-07T09:43:14;10.40;;;8.60;;
5303;SDS011;2674;49.722;10.892;2023-04-07T09:45:43;12.90;;;8.70;;
5303;SDS011;2674;49.722;10.892;2023-04-07T09:48:18;14.47;;;9.80;;
5303;SDS011;2674;49.722;10.892;2023-04-07T09:50:45;10.00;;;7.70;;
5303;SDS011;2674;49.722;10.892;2023-04-07T09:53:16;8.53;;;7.37;;
5303;SDS011;2674;49.722;10.892;2023-04-07T09:55:43;14.37;;;9.97;;
5303;SDS011;2674;49.722;10.892;2023-04-07T09:58:13;10.77;;;7.73;;
5303;SDS011;2674;49.722;10.892;2023-04-07T10:00:40;10.40;;;8.50;;
5303;SDS011;2674;49.722;10.892;2023-04-07T10:03:06;11.53;;;8.03;;
5303;SDS011;2674;49.722;10.892;2023-04-07T10:05:33;13.07;;;8.80;;
5303;SDS011;2674;49.722;10.892;2023-04-07T10:08:02;10.97;;;8.20;;
5303;SDS011;2674;49.722;10.892;2023-04-07T10:10:30;11.47;;;8.43;;
5303;SDS011;2674;49.722;10.892;2023-04-07T10:12:57;20.50;;;9.87;;
5303;SDS011;2674;49.722;10.892;2023-04-07T10:15:23;13.13;;;8.20;;
5303;SDS011;2674;49.722;10.892;2023-04-07T10:17:49;12.03;;;8.70;;
5303;SDS011;2674;49.722;10.892;2023-04-07T10:20:16;10.47;;;8.30;;
5303;SDS011;2674;49.722;10.892;2023-04-07T10:22:45;12.43;;;8.00;;
5303;SDS011;2674;49.722;10.892;2023-04-07T10:25:15;11.40;;;8.30;;
5303;SDS011;2674;49.722;10.892;2023-04-07T10:27:48;11.13;;;8.27;;
5303;SDS011;2674;49.722;10.892;2023-04-07T10:30:19;11.57;;;7.43;;
5303;SDS011;2674;49.722;10.892;2023-04-07T10:32:49;10.80;;;7.83;;
5303;SDS011;2674;49.722;10.892;2023-04-07T10:35:17;10.87;;;8.43;;
5303;SDS011;2674;49.722;10.892;2023-04-07T10:38:26;13.80;;;8.43;;
5303;SDS011;2674;49.722;10.892;2023-04-07T10:40:34;12.50;;;8.10;;
5303;SDS011;2674;49.722;10.892;2023-04-07T10:43:01;12.80;;;9.00;;
5303;SDS011;2674;49.722;10.892;2023-04-07T10:48:16;10.93;;;8.10;;
5303;SDS011;2674;49.722;10.892;2023-04-07T10:50:44;14.33;;;9.50;;
5303;SDS011;2674;49.722;10.892;2023-04-07T10:53:11;12.13;;;8.80;;
5303;SDS011;2674;49.722;10.892;2023-04-07T10:55:41;14.10;;;10.30;;
5303;SDS011;2674;49.722;10.892;2023-04-07T11:06:10;17.10;;;10.47;;
5303;SDS011;2674;49.722;10.892;2023-04-07T11:08:37;16.40;;;9.90;;
5303;SDS011;2674;49.722;10.892;2023-04-07T11:11:06;16.23;;;10.40;;
5303;SDS011;2674;49.722;10.892;2023-04-07T11:13:40;15.43;;;10.27;;
5303;SDS011;2674;49.722;10.892;2023-04-07T11:16:06;16.60;;;10.90;;
5303;SDS011;2674;49.722;10.892;2023-04-07T11:18:33;16.73;;;10.67;;
5303;SDS011;2674;49.722;10.892;2023-04-07T11:21:01;15.73;;;9.67;;
5303;SDS011;2674;49.722;10.892;2023-04-07T11:23:27;14.47;;;9.77;;
5303;SDS011;2674;49.722;10.892;2023-04-07T11:26:00;14.80;;;10.60;;
5303;SDS011;2674;49.722;10.892;2023-04-07T11:28:27;12.50;;;9.27;;
5303;SDS011;2674;49.722;10.892;2023-04-07T11:30:54;15.80;;;11.00;;
5303;SDS011;2674;49.722;10.892;2023-04-07T11:33:24;13.60;;;10.13;;
5303;SDS011;2674;49.722;10.892;2023-04-07T11:35:55;19.23;;;11.07;;
5303;SDS011;2674;49.722;10.892;2023-04-07T11:38:27;13.77;;;10.03;;
5303;SDS011;2674;49.722;10.892;2023-04-07T11:41:08;13.23;;;9.43;;
5303;SDS011;2674;49.722;10.892;2023-04-07T11:43:35;13.70;;;9.10;;
5303;SDS011;2674;49.722;10.892;2023-04-07T11:46:02;14.00;;;9.77;;
5303;SDS011;2674;49.722;10.892;2023-04-07T11:48:32;14.13;;;9.37;;
5303;SDS011;2674;49.722;10.892;2023-04-07T11:51:00;13.47;;;9.77;;
5303;SDS011;2674;49.722;10.892;2023-04-07T11:53:33;16.53;;;10.57;;
5303;SDS011;2674;49.722;10.892;2023-04-07T11:58:36;15.23;;;10.80;;
5303;SDS011;2674;49.722;10.892;2023-04-07T12:01:03;18.90;;;11.20;;
5303;SDS011;2674;49.722;10.892;2023-04-07T12:03:36;12.80;;;9.80;;
5303;SDS011;2674;49.722;10.892;2023-04-07T12:06:02;15.33;;;10.17;;
5303;SDS011;2674;49.722;10.892;2023-04-07T12:11:07;13.13;;;10.13;;
5303;SDS011;2674;49.722;10.892;2023-04-07T12:13:34;17.57;;;11.40;;
5303;SDS011;2674;49.722;10.892;2023-04-07T12:16:01;12.40;;;9.33;;
5303;SDS011;2674;49.722;10.892;2023-04-07T12:18:27;14.03;;;9.30;;
5303;SDS011;2674;49.722;10.892;2023-04-07T12:20:54;17.73;;;9.80;;
5303;SDS011;2674;49.722;10.892;2023-04-07T12:23:21;11.37;;;9.77;;
5303;SDS011;2674;49.722;10.892;2023-04-07T12:25:46;12.63;;;9.23;;
5303;SDS011;2674;49.722;10.892;2023-04-07T12:28:12;11.23;;;9.80;;
5303;SDS011;2674;49.722;10.892;2023-04-07T12:30:38;17.10;;;9.60;;
5303;SDS011;2674;49.722;10.892;2023-04-07T12:33:04;12.90;;;10.30;;
5303;SDS011;2674;49.722;10.892;2023-04-07T12:35:30;14.23;;;10.87;;
5303;SDS011;2674;49.722;10.892;2023-04-07T12:37:56;11.13;;;9.40;;
5303;SDS011;2674;49.722;10.892;2023-04-07T12:40:23;11.43;;;10.13;;
5303;SDS011;2674;49.722;10.892;2023-04-07T12:42:51;16.20;;;10.40;;
5303;SDS011;2674;49.722;10.892;2023-04-07T12:45:17;16.47;;;10.07;;
5303;SDS011;2674;49.722;10.892;2023-04-07T12:47:43;12.33;;;9.57;;
5303;SDS011;2674;49.722;10.892;2023-04-07T12:50:09;15.77;;;10.60;;
5303;SDS011;2674;49.722;10.892;2023-04-07T12:52:35;12.07;;;10.07;;
5303;SDS011;2674;49.722;10.892;2023-04-07T12:55:01;11.27;;;10.10;;
5303;SDS011;2674;49.722;10.892;2023-04-07T12:57:27;14.27;;;10.23;;
5303;SDS011;2674;49.722;10.892;2023-04-07T12:59:53;12.87;;;9.83;;
5303;SDS011;2674;49.722;10.892;2023-04-07T13:02:19;13.37;;;10.53;;
5303;SDS011;2674;49.722;10.892;2023-04-07T13:04:45;13.60;;;10.70;;
5303;SDS011;2674;49.722;10.892;2023-04-07T13:07:12;16.90;;;10.50;;
5303;SDS011;2674;49.722;10.892;2023-04-07T13:09:38;12.10;;;9.63;;
5303;SDS011;2674;49.722;10.892;2023-04-07T13:12:10;15.80;;;9.83;;
5303;SDS011;2674;49.722;10.892;2023-04-07T13:14:37;14.10;;;9.43;;
5303;SDS011;2674;49.722;10.892;2023-04-07T13:17:04;14.53;;;10.23;;
5303;SDS011;2674;49.722;10.892;2023-04-07T13:19:30;15.30;;;10.90;;
5303;SDS011;2674;49.722;10.892;2023-04-07T13:21:56;14.20;;;9.97;;
5303;SDS011;2674;49.722;10.892;2023-04-07T13:24:22;14.43;;;10.00;;
5303;SDS011;2674;49.722;10.892;2023-04-07T13:26:49;13.70;;;9.73;;
5303;SDS011;2674;49.722;10.892;2023-04-07T13:29:16;15.20;;;11.10;;
5303;SDS011;2674;49.722;10.892;2023-04-07T13:31:44;12.80;;;10.30;;
5303;SDS011;2674;49.722;10.892;2023-04-07T13:34:10;11.63;;;9.60;;
5303;SDS011;2674;49.722;10.892;2023-04-07T13:36:37;14.37;;;10.20;;
5303;SDS011;2674;49.722;10.892;2023-04-07T13:39:04;13.33;;;9.63;;
5303;SDS011;2674;49.722;10.892;2023-04-07T13:41:30;14.30;;;11.20;;
5303;SDS011;2674;49.722;10.892;2023-04-07T13:43:58;17.10;;;10.10;;
5303;SDS011;2674;49.722;10.892;2023-04-07T13:46:25;13.10;;;9.90;;
5303;SDS011;2674;49.722;10.892;2023-04-07T13:48:51;15.73;;;10.80;;
5303;SDS011;2674;49.722;10.892;2023-04-07T13:51:17;19.73;;;10.90;;
5303;SDS011;2674;49.722;10.892;2023-04-07T13:53:44;13.10;;;9.87;;
5303;SDS011;2674;49.722;10.892;2023-04-07T13:56:10;12.90;;;9.80;;
5303;SDS011;2674;49.722;10.892;2023-04-07T13:58:36;11.33;;;9.93;;
5303;SDS011;2674;49.722;10.892;2023-04-07T14:01:02;12.40;;;9.80;;
5303;SDS011;2674;49.722;10.892;2023-04-07T14:03:28;13.63;;;10.10;;
5303;SDS011;2674;49.722;10.892;2023-04-07T14:05:54;17.67;;;12.00;;
5303;SDS011;2674;49.722;10.892;2023-04-07T14:08:25;13.60;;;10.00;;
5303;SDS011;2674;49.722;10.892;2023-04-07T14:10:52;12.33;;;10.03;;
5303;SDS011;2674;49.722;10.892;2023-04-07T14:15:53;13.23;;;10.27;;
5303;SDS011;2674;49.722;10.892;2023-04-07T14:18:19;14.87;;;10.43;;
5303;SDS011;2674;49.722;10.892;2023-04-07T14:20:47;14.20;;;9.93;;
5303;SDS011;2674;49.722;10.892;2023-04-07T14:23:13;17.80;;;10.00;;
5303;SDS011;2674;49.722;10.892;2023-04-07T14:25:39;12.23;;;10.13;;
5303;SDS011;2674;49.722;10.892;2023-04-07T14:28:05;14.63;;;10.60;;
5303;SDS011;2674;49.722;10.892;2023-04-07T14:30:34;15.10;;;11.13;;
5303;SDS011;2674;49.722;10.892;2023-04-07T14:33:03;13.30;;;9.70;;
5303;SDS011;2674;49.722;10.892;2023-04-07T14:35:29;13.77;;;10.03;;
5303;SDS011;2674;49.722;10.892;2023-04-07T14:37:55;15.27;;;10.40;;
5303;SDS011;2674;49.722;10.892;2023-04-07T14:40:20;11.90;;;9.87;;
5303;SDS011;2674;49.722;10.892;2023-04-07T14:42:46;11.03;;;9.23;;
5303;SDS011;2674;49.722;10.892;2023-04-07T14:45:12;12.77;;;10.30;;
5303;SDS011;2674;49.722;10.892;2023-04-07T14:47:38;13.60;;;9.57;;
5303;SDS011;2674;49.722;10.892;2023-04-07T14:50:04;19.13;;;11.10;;
5303;SDS011;2674;49.722;10.892;2023-04-07T14:52:31;12.23;;;9.67;;
5303;SDS011;2674;49.722;10.892;2023-04-07T14:54:57;12.93;;;9.40;;
5303;SDS011;2674;49.722;10.892;2023-04-07T14:57:23;13.57;;;9.73;;
5303;SDS011;2674;49.722;10.892;2023-04-07T14:59:49;13.73;;;9.60;;
5303;SDS011;2674;49.722;10.892;2023-04-07T15:02:14;12.77;;;10.00;;
5303;SDS011;2674;49.722;10.892;2023-04-07T15:04:40;16.47;;;10.60;;
5303;SDS011;2674;49.722;10.892;2023-04-07T15:07:06;19.57;;;10.30;;
5303;SDS011;2674;49.722;10.892;2023-04-07T15:09:32;12.87;;;10.30;;